createdAt,value
2023-05-13T00:01:20.884Z,16.42
2023-05-13T00:03:47.721Z,16.54
2023-05-13T00:06:14.772Z,16.62
2023-05-13T00:08:41.478Z,16.58
2023-05-13T00:11:08.231Z,16.52
2023-05-13T00:13:34.939Z,16.57
2023-05-13T00:16:02.876Z,16.61
2023-05-13T00:18:29.908Z,16.46
2023-05-13T00:20:56.625Z,16.47
2023-05-13T00:23:23.258Z,16.40
2023-05-13T00:25:50.042Z,16.37
2023-05-13T00:28:16.924Z,16.36
2023-05-13T00:30:45.467Z,16.29
2023-05-13T00:33:12.298Z,16.25
2023-05-13T00:35:38.947Z,16.19
2023-05-13T00:38:05.647Z,16.18
2023-05-13T00:40:34.690Z,16.11
2023-05-13T00:43:01.432Z,16.12
2023-05-13T00:45:28.399Z,16.05
2023-05-13T00:47:55.122Z,16.03
2023-05-13T00:50:22.114Z,16.06
2023-05-13T00:52:50.969Z,16.08
2023-05-13T00:55:17.889Z,16.10
2023-05-13T00:57:44.612Z,16.09
2023-05-13T01:00:12.231Z,16.03
2023-05-13T01:02:43.195Z,15.98
2023-05-13T01:05:24.821Z,15.94
2023-05-13T01:08:20.217Z,15.93
2023-05-13T01:10:51.371Z,15.90
2023-05-13T01:13:24.433Z,15.90
2023-05-13T01:16:01.730Z,15.87
2023-05-13T01:18:36.105Z,15.78
2023-05-13T01:21:04.909Z,15.85
2023-05-13T01:23:32.196Z,15.77
2023-05-13T01:25:59.496Z,15.78
2023-05-13T01:28:26.832Z,15.78
2023-05-13T01:30:57.099Z,15.78
2023-05-13T01:33:26.360Z,15.68
2023-05-13T01:35:53.432Z,15.67
2023-05-13T01:38:21.735Z,15.67
2023-05-13T01:40:53.279Z,15.57
2023-05-13T01:43:20.003Z,15.51
2023-05-13T01:45:47.384Z,15.52
2023-05-13T01:48:14.710Z,15.44
2023-05-13T01:50:44.480Z,15.40
2023-05-13T01:53:11.866Z,15.37
2023-05-13T01:55:38.941Z,15.42
2023-05-13T01:58:05.866Z,15.43
2023-05-13T02:00:32.550Z,15.35
2023-05-13T02:02:59.317Z,15.35
2023-05-13T02:05:26.150Z,15.33
2023-05-13T02:07:53.934Z,15.21
2023-05-13T02:10:20.830Z,15.11
2023-05-13T02:12:50.135Z,15.01
2023-05-13T02:15:18.227Z,15.06
2023-05-13T02:17:45.006Z,15.02
2023-05-13T02:20:12.641Z,14.97
2023-05-13T02:22:39.302Z,14.92
2023-05-13T02:25:07.651Z,14.83
2023-05-13T02:27:37.014Z,14.94
2023-05-13T02:30:04.690Z,14.99
2023-05-13T02:32:31.832Z,14.95
2023-05-13T02:34:58.474Z,14.96
2023-05-13T02:37:25.076Z,14.92
2023-05-13T02:39:59.090Z,14.91
2023-05-13T02:42:25.857Z,14.88
2023-05-13T02:44:52.574Z,14.86
2023-05-13T02:47:20.024Z,14.89
2023-05-13T02:49:46.810Z,14.81
2023-05-13T02:52:13.467Z,14.75
2023-05-13T02:54:40.185Z,14.77
2023-05-13T02:57:07.111Z,14.70
2023-05-13T02:59:34.235Z,14.61
2023-05-13T03:02:00.899Z,14.61
2023-05-13T03:04:27.558Z,14.57
2023-05-13T03:06:54.309Z,14.58
2023-05-13T03:09:21.049Z,14.62
2023-05-13T03:11:48.020Z,14.56
2023-05-13T03:14:14.710Z,14.54
2023-05-13T03:16:41.385Z,14.46
2023-05-13T03:19:08.166Z,14.53
2023-05-13T03:21:34.938Z,14.48
2023-05-13T03:24:01.721Z,14.45
2023-05-13T03:26:28.386Z,14.44
2023-05-13T03:28:55.562Z,14.45
2023-05-13T03:31:23.086Z,14.38
2023-05-13T03:33:49.868Z,14.42
2023-05-13T03:36:16.552Z,14.41
2023-05-13T03:38:43.286Z,14.38
2023-05-13T03:41:10.110Z,14.39
2023-05-13T03:43:36.906Z,14.29
2023-05-13T03:46:08.082Z,14.21
2023-05-13T03:48:34.710Z,14.24
2023-05-13T03:51:02.840Z,14.14
2023-05-13T03:53:29.927Z,14.10
2023-05-13T03:55:57.565Z,14.07
2023-05-13T03:58:24.195Z,14.01
2023-05-13T04:00:50.897Z,14.13
2023-05-13T04:03:18.584Z,14.16
2023-05-13T04:05:49.200Z,14.18
2023-05-13T04:08:15.934Z,14.23
2023-05-13T04:10:43.286Z,14.25
2023-05-13T04:13:11.271Z,14.29
2023-05-13T04:15:37.942Z,14.31
2023-05-13T04:18:06.093Z,14.33
2023-05-13T04:20:34.371Z,14.34
2023-05-13T04:23:01.807Z,14.41
2023-05-13T04:25:29.465Z,14.39
2023-05-13T04:27:56.137Z,14.52
2023-05-13T04:30:28.622Z,14.62
2023-05-13T04:32:55.792Z,14.72
2023-05-13T04:35:22.924Z,14.80
2023-05-13T04:37:53.739Z,14.81
2023-05-13T04:40:21.561Z,14.89
2023-05-13T04:42:54.537Z,14.97
2023-05-13T04:45:25.772Z,15.08
2023-05-13T04:47:52.414Z,15.15
2023-05-13T04:50:19.456Z,15.27
2023-05-13T04:52:47.539Z,15.36
2023-05-13T04:55:15.062Z,15.33
2023-05-13T04:57:42.459Z,15.47
2023-05-13T05:00:11.085Z,15.56
2023-05-13T05:02:39.375Z,15.71
2023-05-13T05:05:06.530Z,15.99
2023-05-13T05:07:40.222Z,16.11
2023-05-13T05:10:08.533Z,16.37
2023-05-13T05:12:38.201Z,16.58
2023-05-13T05:15:06.260Z,16.65
2023-05-13T05:17:34.047Z,16.83
2023-05-13T05:20:02.634Z,17.12
2023-05-13T05:22:29.491Z,17.38
2023-05-13T05:24:56.710Z,17.61
2023-05-13T05:27:24.973Z,17.80
2023-05-13T05:29:52.086Z,17.91
2023-05-13T05:32:19.539Z,18.22
2023-05-13T05:34:46.325Z,18.39
2023-05-13T05:37:13.147Z,18.50
2023-05-13T05:39:41.111Z,18.78
2023-05-13T05:42:08.730Z,18.94
2023-05-13T05:44:36.167Z,19.10
2023-05-13T05:47:03.201Z,19.37
2023-05-13T05:49:32.602Z,19.52
2023-05-13T05:51:59.314Z,19.79
2023-05-13T05:54:28.128Z,19.99
2023-05-13T05:56:54.857Z,20.26
2023-05-13T05:59:21.579Z,20.48
2023-05-13T06:01:48.865Z,20.89
2023-05-13T06:04:15.733Z,21.02
2023-05-13T06:06:42.446Z,20.97
2023-05-13T06:09:09.089Z,21.21
2023-05-13T06:11:35.801Z,21.55
2023-05-13T06:14:03.330Z,21.67
2023-05-13T06:16:30.240Z,21.79
2023-05-13T06:18:57.189Z,21.69
2023-05-13T06:21:25.254Z,21.50
2023-05-13T06:23:51.951Z,21.46
2023-05-13T06:26:20.829Z,21.33
2023-05-13T06:28:47.467Z,21.25
2023-05-13T06:31:15.064Z,21.41
2023-05-13T06:33:43.591Z,21.68
2023-05-13T06:36:10.276Z,22.05
2023-05-13T06:38:37.099Z,22.24
2023-05-13T06:41:03.994Z,22.34
2023-05-13T06:43:36.084Z,22.69
2023-05-13T06:46:13.120Z,22.92
2023-05-13T06:48:39.952Z,23.07
2023-05-13T06:51:07.081Z,22.95
2023-05-13T06:53:33.801Z,23.00
2023-05-13T06:56:00.468Z,22.99
2023-05-13T06:58:27.761Z,23.27
2023-05-13T07:00:54.487Z,23.57
2023-05-13T07:03:21.214Z,23.54
2023-05-13T07:05:47.959Z,23.74
2023-05-13T07:08:17.821Z,24.14
2023-05-13T07:10:44.973Z,24.48
2023-05-13T07:13:12.413Z,25.02
2023-05-13T07:15:39.183Z,24.45
2023-05-13T07:18:05.927Z,24.48
2023-05-13T07:20:32.839Z,24.32
2023-05-13T07:22:59.495Z,24.31
2023-05-13T07:25:26.210Z,24.43
2023-05-13T07:27:52.933Z,24.38
2023-05-13T07:30:19.751Z,24.04
2023-05-13T07:32:46.740Z,23.84
2023-05-13T07:35:13.740Z,23.72
2023-05-13T07:37:40.520Z,24.09
2023-05-13T07:40:10.654Z,24.25
2023-05-13T07:42:37.596Z,24.46
2023-05-13T07:45:04.788Z,24.33
2023-05-13T07:47:31.944Z,24.48
2023-05-13T07:49:58.867Z,24.58
2023-05-13T07:52:26.291Z,24.90
2023-05-13T07:54:52.991Z,24.73
2023-05-13T07:57:19.686Z,24.65
2023-05-13T07:59:46.340Z,24.95
2023-05-13T08:02:13.086Z,25.26
2023-05-13T08:04:40.109Z,25.41
2023-05-13T08:07:06.884Z,25.73
2023-05-13T08:09:33.532Z,26.20
2023-05-13T08:12:00.570Z,26.26
2023-05-13T08:14:27.291Z,26.27
2023-05-13T08:16:54.437Z,26.01
2023-05-13T08:19:21.483Z,26.05
2023-05-13T08:21:48.374Z,26.17
2023-05-13T08:24:15.031Z,26.22
2023-05-13T08:26:41.985Z,26.74
2023-05-13T08:29:12.783Z,26.66
2023-05-13T08:31:39.422Z,27.06
2023-05-13T08:34:06.437Z,27.00
2023-05-13T08:36:33.877Z,27.11
2023-05-13T08:39:01.361Z,28.10
2023-05-13T08:41:29.865Z,28.29
2023-05-13T08:44:00.714Z,28.62
2023-05-13T08:46:28.891Z,28.53
2023-05-13T08:48:55.997Z,28.81
2023-05-13T08:51:22.816Z,29.04
2023-05-13T08:53:51.606Z,29.70
2023-05-13T08:56:18.387Z,29.82
2023-05-13T08:58:44.990Z,30.16
2023-05-13T09:01:12.470Z,30.51
2023-05-13T09:03:52.383Z,31.55
2023-05-13T09:06:19.034Z,31.71
2023-05-13T09:08:45.983Z,32.04
2023-05-13T09:11:16.294Z,32.31
2023-05-13T09:13:44.605Z,32.57
2023-05-13T09:16:14.161Z,32.63
2023-05-13T09:18:42.135Z,32.13
2023-05-13T09:21:24.825Z,31.88
2023-05-13T09:23:56.365Z,31.76
2023-05-13T09:26:30.236Z,32.07
2023-05-13T09:29:21.299Z,32.28
2023-05-13T09:31:54.928Z,32.07
2023-05-13T09:34:26.857Z,32.62
2023-05-13T09:37:08.096Z,33.68
2023-05-13T09:39:40.146Z,34.19
2023-05-13T09:42:15.673Z,34.13
2023-05-13T09:44:48.862Z,34.64
2023-05-13T09:47:17.004Z,35.27
2023-05-13T09:49:44.893Z,35.34
2023-05-13T09:52:17.115Z,35.50
2023-05-13T09:54:44.296Z,35.57
2023-05-13T09:57:13.642Z,36.80
2023-05-13T09:59:40.617Z,36.47
2023-05-13T10:02:08.544Z,36.55
2023-05-13T10:04:35.215Z,36.01
2023-05-13T10:07:09.604Z,35.40
2023-05-13T10:09:37.865Z,34.04
2023-05-13T10:12:07.520Z,33.22
2023-05-13T10:14:36.893Z,33.55
2023-05-13T10:17:05.277Z,35.19
2023-05-13T10:19:32.421Z,36.01
2023-05-13T10:21:59.326Z,35.45
2023-05-13T10:24:28.848Z,34.00
2023-05-13T10:26:56.331Z,33.59
2023-05-13T10:29:24.804Z,32.48
2023-05-13T10:31:51.813Z,31.89
2023-05-13T10:34:18.554Z,32.24
2023-05-13T10:37:03.708Z,33.09
2023-05-13T10:40:08.625Z,34.17
2023-05-13T10:42:40.908Z,34.05
2023-05-13T10:45:10.964Z,34.04
2023-05-13T10:47:38.313Z,32.71
2023-05-13T10:50:25.882Z,32.73
2023-05-13T10:52:57.107Z,32.71
2023-05-13T10:55:26.123Z,31.33
2023-05-13T10:58:04.667Z,31.30
2023-05-13T11:00:31.974Z,30.83
2023-05-13T11:03:29.750Z,30.46
2023-05-13T11:06:01.031Z,30.46
2023-05-13T11:08:40.813Z,32.04
2023-05-13T11:11:23.274Z,32.18
2023-05-13T11:13:51.321Z,30.72
2023-05-13T11:16:23.090Z,29.35
2023-05-13T11:18:51.891Z,29.29
2023-05-13T11:21:30.116Z,28.90
2023-05-13T11:23:59.022Z,30.45
2023-05-13T11:26:25.809Z,32.47
2023-05-13T11:29:03.512Z,33.63
2023-05-13T11:31:43.563Z,34.98
2023-05-13T11:34:13.005Z,35.25
2023-05-13T11:36:41.934Z,35.45
2023-05-13T11:39:21.371Z,33.70
2023-05-13T11:41:53.287Z,32.32
2023-05-13T11:44:21.551Z,33.18
2023-05-13T11:46:59.835Z,33.64
2023-05-13T11:49:32.872Z,32.20
2023-05-13T11:52:03.368Z,30.19
2023-05-13T11:54:30.297Z,31.00
2023-05-13T11:56:57.080Z,31.20
2023-05-13T11:59:24.634Z,30.92
2023-05-13T12:02:02.003Z,30.72
2023-05-13T12:04:30.698Z,29.69
2023-05-13T12:06:58.042Z,28.76
2023-05-13T12:09:25.476Z,28.05
2023-05-13T12:11:53.771Z,27.54
2023-05-13T12:14:21.554Z,27.86
2023-05-13T12:16:48.827Z,27.80
2023-05-13T12:19:15.654Z,27.36
2023-05-13T12:21:42.557Z,27.73
2023-05-13T12:24:22.082Z,27.89
2023-05-13T12:26:49.381Z,26.81
2023-05-13T12:29:16.296Z,26.65
2023-05-13T12:32:03.919Z,26.04
2023-05-13T12:34:32.473Z,25.72
2023-05-13T12:37:11.016Z,25.54
2023-05-13T12:39:38.315Z,25.39
2023-05-13T12:42:05.192Z,25.78
2023-05-13T12:44:32.053Z,26.42
2023-05-13T12:46:59.248Z,26.74
2023-05-13T12:49:26.280Z,26.85
2023-05-13T12:51:52.949Z,27.02
2023-05-13T12:54:19.632Z,27.14
2023-05-13T12:56:46.520Z,27.42
2023-05-13T12:59:14.371Z,27.18
2023-05-13T13:01:42.779Z,27.34
2023-05-13T13:04:12.722Z,27.07
2023-05-13T13:06:39.704Z,26.60
2023-05-13T13:09:06.400Z,26.57
2023-05-13T13:11:33.074Z,26.03
2023-05-13T13:13:59.747Z,25.89
2023-05-13T13:16:32.946Z,26.12
2023-05-13T13:19:01.793Z,25.78
2023-05-13T13:21:28.899Z,26.16
2023-05-13T13:23:55.567Z,26.12
2023-05-13T13:26:23.173Z,26.25
2023-05-13T13:28:52.804Z,26.46
2023-05-13T13:31:19.455Z,26.74
2023-05-13T13:33:46.172Z,26.85
2023-05-13T13:36:15.142Z,26.76
2023-05-13T13:38:41.780Z,26.52
2023-05-13T13:41:08.538Z,26.32
2023-05-13T13:43:35.212Z,26.14
2023-05-13T13:46:02.232Z,25.98
2023-05-13T13:48:28.953Z,25.96
2023-05-13T13:50:55.567Z,25.88
2023-05-13T13:53:22.263Z,25.96
2023-05-13T13:55:49.011Z,25.91
2023-05-13T13:58:15.771Z,25.90
2023-05-13T14:00:42.470Z,25.97
2023-05-13T14:03:09.292Z,26.14
2023-05-13T14:05:39.077Z,26.40
2023-05-13T14:08:08.459Z,26.51
2023-05-13T14:10:35.218Z,26.70
2023-05-13T14:13:01.988Z,26.74
2023-05-13T14:15:30.585Z,26.63
2023-05-13T14:17:57.616Z,25.92
2023-05-13T14:20:25.024Z,25.95
2023-05-13T14:22:51.777Z,26.10
2023-05-13T14:25:18.446Z,25.91
2023-05-13T14:27:45.390Z,25.82
2023-05-13T14:30:15.152Z,25.70
2023-05-13T14:32:45.595Z,25.75
2023-05-13T14:35:13.132Z,25.39
2023-05-13T14:37:41.463Z,25.02
2023-05-13T14:40:11.113Z,25.02
2023-05-13T14:42:37.886Z,25.10
2023-05-13T14:45:04.912Z,25.00
2023-05-13T14:47:31.792Z,24.91
2023-05-13T14:49:58.634Z,24.83
2023-05-13T14:52:25.482Z,24.70
2023-05-13T14:54:52.216Z,24.74
2023-05-13T14:57:19.087Z,24.83
2023-05-13T14:59:45.719Z,25.08
2023-05-13T15:02:13.821Z,25.28
2023-05-13T15:04:40.584Z,25.39
2023-05-13T15:07:07.429Z,25.59
2023-05-13T15:09:34.080Z,25.32
2023-05-13T15:12:00.877Z,25.05
2023-05-13T15:14:28.254Z,24.78
2023-05-13T15:16:55.106Z,24.58
2023-05-13T15:19:21.827Z,24.49
2023-05-13T15:21:48.444Z,24.11
2023-05-13T15:24:15.220Z,23.87
2023-05-13T15:26:41.865Z,23.45
2023-05-13T15:29:08.527Z,23.54
2023-05-13T15:31:35.414Z,23.34
2023-05-13T15:34:03.178Z,23.49
2023-05-13T15:36:29.849Z,23.40
2023-05-13T15:39:10.799Z,23.39
2023-05-13T15:41:37.674Z,23.79
2023-05-13T15:44:05.233Z,24.21
2023-05-13T15:46:33.566Z,24.89
2023-05-13T15:49:01.051Z,25.25
2023-05-13T15:51:28.291Z,25.49
2023-05-13T15:53:54.942Z,25.04
2023-05-13T15:56:25.699Z,23.94
2023-05-13T15:58:52.882Z,23.14
2023-05-13T16:01:19.586Z,22.83
2023-05-13T16:03:46.318Z,21.92
2023-05-13T16:06:13.373Z,21.72
2023-05-13T16:08:39.996Z,21.51
2023-05-13T16:11:06.721Z,20.95
2023-05-13T16:13:33.447Z,21.02
2023-05-13T16:16:00.216Z,21.01
2023-05-13T16:18:26.956Z,20.98
2023-05-13T16:20:54.854Z,21.25
2023-05-13T16:23:21.562Z,21.15
2023-05-13T16:25:48.198Z,21.41
2023-05-13T16:28:15.484Z,21.47
2023-05-13T16:30:42.567Z,21.51
2023-05-13T16:33:09.581Z,21.22
2023-05-13T16:35:38.822Z,21.34
2023-05-13T16:38:05.929Z,21.23
2023-05-13T16:40:33.289Z,21.50
2023-05-13T16:43:03.264Z,21.80
2023-05-13T16:45:30.949Z,21.66
2023-05-13T16:47:57.774Z,21.35
2023-05-13T16:50:24.800Z,21.14
2023-05-13T16:52:54.852Z,21.07
2023-05-13T16:55:22.395Z,21.36
2023-05-13T16:57:49.099Z,21.31
2023-05-13T17:00:16.106Z,21.42
2023-05-13T17:02:43.264Z,21.53
2023-05-13T17:05:10.017Z,21.73
2023-05-13T17:07:36.734Z,21.82
2023-05-13T17:10:03.803Z,22.07
2023-05-13T17:12:30.571Z,22.00
2023-05-13T17:14:57.248Z,22.14
2023-05-13T17:17:23.983Z,22.11
2023-05-13T17:19:50.656Z,22.26
2023-05-13T17:22:17.379Z,22.29
2023-05-13T17:24:44.044Z,22.07
2023-05-13T17:27:10.892Z,22.00
2023-05-13T17:29:37.688Z,21.91
2023-05-13T17:32:05.196Z,21.90
2023-05-13T17:34:31.850Z,21.92
2023-05-13T17:36:58.540Z,21.88
2023-05-13T17:39:25.372Z,21.93
2023-05-13T17:41:52.198Z,21.86
2023-05-13T17:44:19.959Z,21.83
2023-05-13T17:46:46.725Z,21.81
2023-05-13T17:49:19.028Z,21.75
2023-05-13T17:51:45.782Z,21.60
2023-05-13T17:54:12.472Z,21.52
2023-05-13T17:56:39.215Z,21.60
2023-05-13T17:59:06.777Z,21.48
2023-05-13T18:01:33.466Z,21.44
2023-05-13T18:04:00.756Z,21.38
2023-05-13T18:06:27.480Z,21.27
2023-05-13T18:08:54.386Z,21.23
2023-05-13T18:11:23.761Z,21.22
2023-05-13T18:13:58.580Z,21.15
2023-05-13T18:16:25.346Z,20.96
2023-05-13T18:18:52.104Z,20.99
2023-05-13T18:21:18.889Z,20.93
2023-05-13T18:23:46.496Z,20.95
2023-05-13T18:26:16.317Z,20.89
2023-05-13T18:28:45.756Z,20.94
2023-05-13T18:31:12.562Z,20.87
2023-05-13T18:33:45.484Z,20.87
2023-05-13T18:36:12.221Z,20.81
2023-05-13T18:38:41.790Z,20.83
2023-05-13T18:41:09.222Z,20.87
2023-05-13T18:43:35.882Z,20.80
2023-05-13T18:46:02.603Z,20.73
2023-05-13T18:48:29.347Z,20.61
2023-05-13T18:50:58.723Z,20.49
2023-05-13T18:53:25.392Z,20.23
2023-05-13T18:55:52.256Z,20.38
2023-05-13T18:58:21.836Z,20.45
2023-05-13T19:00:48.656Z,20.39
2023-05-13T19:03:15.550Z,20.33
2023-05-13T19:05:42.321Z,20.32
2023-05-13T19:08:08.977Z,20.33
2023-05-13T19:10:40.008Z,20.26
2023-05-13T19:13:07.515Z,20.20
2023-05-13T19:15:34.253Z,20.10
2023-05-13T19:18:01.276Z,20.00
2023-05-13T19:20:29.731Z,19.96
2023-05-13T19:22:56.419Z,19.96
2023-05-13T19:25:26.062Z,20.01
2023-05-13T19:27:52.919Z,20.02
2023-05-13T19:30:19.643Z,19.98
2023-05-13T19:32:46.707Z,19.95
2023-05-13T19:35:13.379Z,19.98
2023-05-13T19:37:40.325Z,19.96
2023-05-13T19:40:10.732Z,19.95
2023-05-13T19:42:37.818Z,19.88
2023-05-13T19:45:07.533Z,19.72
2023-05-13T19:47:37.461Z,19.59
2023-05-13T19:50:04.751Z,19.43
2023-05-13T19:52:31.462Z,19.40
2023-05-13T19:54:58.556Z,19.46
2023-05-13T19:57:28.012Z,19.35
2023-05-13T19:59:55.982Z,19.10
2023-05-13T20:02:22.766Z,19.13
2023-05-13T20:04:49.498Z,19.12
2023-05-13T20:07:16.200Z,19.09
2023-05-13T20:09:43.007Z,19.04
2023-05-13T20:12:09.838Z,18.98
2023-05-13T20:14:47.011Z,18.94
2023-05-13T20:17:19.417Z,18.80
2023-05-13T20:19:49.593Z,18.82
2023-05-13T20:22:17.815Z,18.92
2023-05-13T20:24:48.866Z,18.85
2023-05-13T20:27:16.899Z,18.77
2023-05-13T20:29:45.712Z,18.70
2023-05-13T20:32:12.883Z,18.61
2023-05-13T20:34:39.861Z,18.65
2023-05-13T20:37:06.685Z,18.63
2023-05-13T20:39:33.332Z,18.49
2023-05-13T20:41:59.960Z,18.53
2023-05-13T20:44:26.640Z,18.48
2023-05-13T20:46:53.372Z,18.41
2023-05-13T20:49:20.042Z,18.38
2023-05-13T20:51:48.140Z,18.35
2023-05-13T20:54:15.301Z,18.33
2023-05-13T20:56:41.952Z,18.32
2023-05-13T20:59:08.882Z,18.22
2023-05-13T21:01:36.101Z,18.15
2023-05-13T21:04:05.853Z,17.97
2023-05-13T21:06:32.962Z,18.08
2023-05-13T21:08:59.580Z,17.92
2023-05-13T21:11:26.466Z,18.01
2023-05-13T21:13:53.194Z,18.00
2023-05-13T21:16:19.858Z,17.98
2023-05-13T21:18:46.683Z,17.84
2023-05-13T21:21:13.336Z,17.84
2023-05-13T21:23:42.434Z,17.92
2023-05-13T21:26:13.176Z,17.97
2023-05-13T21:28:40.000Z,18.00
2023-05-13T21:31:07.151Z,18.06
2023-05-13T21:33:33.887Z,17.98
2023-05-13T21:36:00.481Z,17.98
2023-05-13T21:38:27.259Z,17.99
2023-05-13T21:40:54.441Z,18.02
2023-05-13T21:43:21.114Z,17.93
2023-05-13T21:45:48.135Z,17.94
2023-05-13T21:48:15.162Z,17.93
2023-05-13T21:50:41.998Z,17.85
2023-05-13T21:53:08.647Z,17.79
2023-05-13T21:55:35.247Z,17.61
2023-05-13T21:58:02.955Z,17.46
2023-05-13T22:00:30.145Z,17.52
2023-05-13T22:03:01.278Z,17.54
2023-05-13T22:05:28.314Z,17.49
2023-05-13T22:07:55.133Z,17.31
2023-05-13T22:10:21.896Z,17.31
2023-05-13T22:12:48.736Z,17.34
2023-05-13T22:15:15.714Z,17.01
2023-05-13T22:17:42.462Z,17.02
2023-05-13T22:20:09.535Z,17.08
2023-05-13T22:22:36.211Z,16.88
2023-05-13T22:25:03.347Z,17.00
2023-05-13T22:27:30.092Z,17.06
2023-05-13T22:29:56.821Z,16.94
2023-05-13T22:32:23.651Z,16.86
2023-05-13T22:34:50.832Z,16.89
2023-05-13T22:37:17.440Z,16.87
2023-05-13T22:39:44.243Z,16.77
2023-05-13T22:42:11.062Z,16.68
2023-05-13T22:44:38.700Z,16.77
2023-05-13T22:47:05.924Z,16.76
2023-05-13T22:49:32.559Z,16.69
2023-05-13T22:51:59.236Z,16.71
2023-05-13T22:54:25.963Z,16.65
2023-05-13T22:56:52.662Z,16.59
2023-05-13T22:59:19.335Z,16.62
2023-05-13T23:01:46.111Z,16.53
2023-05-13T23:04:12.920Z,16.47
2023-05-13T23:06:39.578Z,16.44
2023-05-13T23:09:07.459Z,16.46
2023-05-13T23:11:36.116Z,16.42
2023-05-13T23:14:02.752Z,16.42
2023-05-13T23:16:29.567Z,16.35
2023-05-13T23:18:56.330Z,16.25
2023-05-13T23:21:23.021Z,16.11
2023-05-13T23:23:50.353Z,16.03
2023-05-13T23:26:17.143Z,16.15
2023-05-13T23:28:43.829Z,16.16
2023-05-13T23:31:10.607Z,16.22
2023-05-13T23:33:37.281Z,16.27
2023-05-13T23:36:04.183Z,16.23
2023-05-13T23:38:30.825Z,16.18
2023-05-13T23:40:57.477Z,16.16
2023-05-13T23:43:24.077Z,16.07
2023-05-13T23:45:50.935Z,15.97
2023-05-13T23:48:17.619Z,15.95
2023-05-13T23:50:44.350Z,15.90
2023-05-13T23:53:11.008Z,15.75
2023-05-13T23:55:37.650Z,15.85
2023-05-13T23:58:04.430Z,15.85
